Time;durP1;ratioP1;P1;durP2;ratioP2;P2;SDS_P1;SDS_P2;PMS_P1;PMS_P2;Temp;Humidity;BMP_temperature;BMP_pressure;BME280_temperature;BME280_humidity;BME280_pressure;Samples;Min_cycle;Max_cycle;Signal;HPM_P1;HPM_P2
2020/12/03 00:23:30;;;;;;;70.40;34.30;;;6.20;99.90;;;;;;4984753;28;20057;-89
2020/12/03 00:25:56;;;;;;;72.25;35.00;;;6.30;99.90;;;;;;4995326;28;20031;-88
2020/12/03 00:28:30;;;;;;;71.40;34.47;;;6.30;99.90;;;;;;4996382;28;20021;-88
2020/12/03 00:30:56;;;;;;;72.35;34.15;;;6.30;99.90;;;;;;5015988;28;20057;-88
2020/12/03 00:33:21;;;;;;;75.70;36.05;;;6.30;99.90;;;;;;5015771;28;20026;-89
2020/12/03 00:35:48;;;;;;;74.57;35.80;;;6.30;99.90;;;;;;5015624;28;20033;-88
2020/12/03 00:38:16;;;;;;;71.38;34.72;;;6.30;99.90;;;;;;5015552;28;20034;-88
2020/12/03 00:40:42;;;;;;;71.40;34.63;;;6.30;99.90;;;;;;4998231;28;20497;-88
2020/12/03 00:43:07;;;;;;;63.88;33.40;;;6.30;99.90;;;;;;4998067;28;20080;-87
2020/12/03 00:45:33;;;;;;;69.35;37.40;;;6.30;99.90;;;;;;5015492;28;20148;-88
2020/12/03 00:47:59;;;;;;;69.55;34.15;;;6.30;99.90;;;;;;4997957;28;20485;-88
2020/12/03 00:50:24;;;;;;;70.65;34.13;;;6.20;99.90;;;;;;4997881;28;20049;-87
2020/12/03 00:52:50;;;;;;;72.15;35.03;;;6.30;99.90;;;;;;4997919;28;20030;-89
2020/12/03 00:55:16;;;;;;;69.13;34.72;;;6.20;99.90;;;;;;5015321;28;20030;-88
2020/12/03 00:57:41;;;;;;;68.55;33.78;;;6.20;99.90;;;;;;4997673;28;20026;-88
2020/12/03 01:00:11;;;;;;;73.53;36.15;;;6.20;99.90;;;;;;4997645;28;20443;-88
2020/12/03 01:02:36;;;;;;;72.00;34.83;;;6.30;99.90;;;;;;4997870;28;20030;-89
2020/12/03 01:05:04;;;;;;;73.07;33.67;;;6.30;99.90;;;;;;5014966;28;20563;-88
2020/12/03 01:07:29;;;;;;;59.65;31.50;;;6.30;99.90;;;;;;4997624;28;20033;-88
2020/12/03 01:09:55;;;;;;;64.72;32.53;;;6.30;99.90;;;;;;4997611;28;20026;-88
2020/12/03 01:12:20;;;;;;;58.53;31.73;;;6.30;99.90;;;;;;4997474;28;20511;-88
2020/12/03 01:14:46;;;;;;;63.78;31.30;;;6.30;99.90;;;;;;4997274;28;20068;-88
2020/12/03 01:17:14;;;;;;;61.00;31.48;;;6.30;99.90;;;;;;5015082;28;20026;-89
2020/12/03 01:19:40;;;;;;;67.32;31.92;;;6.30;99.90;;;;;;4997445;28;20107;-88
2020/12/03 01:22:07;;;;;;;57.88;29.40;;;6.30;99.90;;;;;;5014880;28;20022;-88
2020/12/03 01:24:33;;;;;;;55.05;29.83;;;6.20;99.90;;;;;;4997354;28;20052;-89
2020/12/03 01:26:59;;;;;;;57.15;29.52;;;6.20;99.90;;;;;;4997090;28;20033;-88
2020/12/03 01:29:25;;;;;;;60.17;31.15;;;6.20;99.90;;;;;;4997480;28;20026;-89
2020/12/03 01:31:52;;;;;;;52.85;29.13;;;6.20;99.90;;;;;;4997169;28;20022;-88
2020/12/03 01:34:18;;;;;;;59.00;28.63;;;6.10;99.90;;;;;;4997178;28;20022;-88
2020/12/03 01:36:48;;;;;;;58.85;28.90;;;6.20;99.90;;;;;;4997221;28;20022;-88
2020/12/03 01:39:14;;;;;;;57.10;28.73;;;6.20;99.90;;;;;;4996464;28;20022;-89
2020/12/03 01:41:39;;;;;;;62.67;28.00;;;6.10;99.90;;;;;;4996951;28;20029;-88
2020/12/03 01:44:06;;;;;;;61.38;27.80;;;6.10;99.90;;;;;;4997149;28;20065;-88
2020/12/03 01:46:32;;;;;;;58.78;28.20;;;6.10;99.90;;;;;;4996924;28;20025;-88
2020/12/03 01:49:11;;;;;;;55.83;27.27;;;6.10;99.90;;;;;;4997081;28;20018;-89
2020/12/03 01:51:43;;;;;;;56.75;27.40;;;6.00;99.90;;;;;;5014551;28;20116;-88
2020/12/03 01:54:16;;;;;;;50.95;26.83;;;6.00;99.90;;;;;;4996820;28;20088;-88
2020/12/03 01:57:04;;;;;;;55.03;27.48;;;6.00;99.90;;;;;;4996975;28;20124;-87
2020/12/03 01:59:36;;;;;;;57.25;26.88;;;6.00;99.90;;;;;;4996824;28;20034;-88
2020/12/03 02:02:02;;;;;;;53.70;27.25;;;6.00;99.90;;;;;;4996495;28;20030;-87
2020/12/03 02:04:28;;;;;;;52.85;27.83;;;6.00;99.90;;;;;;4996768;28;20068;-88
2020/12/03 02:07:04;;;;;;;52.47;26.80;;;6.00;99.90;;;;;;4996699;28;20050;-88
2020/12/03 02:09:29;;;;;;;51.65;27.73;;;6.00;99.90;;;;;;5014138;28;20428;-88
2020/12/03 02:11:56;;;;;;;49.10;26.10;;;5.90;99.90;;;;;;5014154;28;20022;-88
2020/12/03 02:14:21;;;;;;;55.75;27.10;;;6.00;99.90;;;;;;4996745;28;20030;-88
2020/12/03 02:16:47;;;;;;;51.72;27.77;;;6.00;99.90;;;;;;4996719;28;20029;-88
2020/12/03 02:19:15;;;;;;;49.63;28.17;;;6.00;99.90;;;;;;4996613;28;20500;-88
2020/12/03 02:21:42;;;;;;;50.50;26.27;;;6.00;99.90;;;;;;4996876;28;20079;-88
2020/12/03 02:24:07;;;;;;;48.38;26.50;;;6.00;99.90;;;;;;4993134;28;20052;-88
2020/12/03 02:26:33;;;;;;;57.75;27.20;;;6.00;99.90;;;;;;4993340;28;20029;-89
2020/12/03 02:28:58;;;;;;;51.80;28.23;;;6.00;99.90;;;;;;4993313;28;20026;-88
2020/12/03 02:31:24;;;;;;;50.42;28.23;;;6.00;99.90;;;;;;4993315;28;20418;-88
2020/12/03 02:33:49;;;;;;;51.95;26.58;;;6.00;99.90;;;;;;4993545;28;20019;-88
2020/12/03 02:36:15;;;;;;;46.95;24.65;;;6.00;99.90;;;;;;4976991;28;20023;-88
2020/12/03 02:38:42;;;;;;;53.88;26.00;;;6.00;99.90;;;;;;4973919;28;20390;-88
2020/12/03 02:41:08;;;;;;;51.40;25.70;;;6.00;99.90;;;;;;4973929;28;20019;-88
2020/12/03 02:43:34;;;;;;;53.33;27.48;;;6.00;99.90;;;;;;4973709;28;20434;-88
2020/12/03 02:45:59;;;;;;;50.05;25.60;;;6.00;99.90;;;;;;4973887;28;20027;-88
2020/12/03 02:48:25;;;;;;;55.28;26.00;;;6.00;99.90;;;;;;4973677;28;20106;-88
2020/12/03 02:50:50;;;;;;;50.70;25.20;;;5.90;99.90;;;;;;4974611;28;20023;-88
2020/12/03 02:53:16;;;;;;;47.35;24.30;;;5.90;99.90;;;;;;4977318;28;20027;-89
2020/12/03 02:55:42;;;;;;;44.20;24.58;;;6.00;99.90;;;;;;4977658;28;20069;-88
2020/12/03 02:58:07;;;;;;;45.72;23.48;;;5.90;99.90;;;;;;4977489;28;20034;-88
2020/12/03 03:00:33;;;;;;;40.90;23.15;;;5.90;99.90;;;;;;4977278;28;20125;-88
2020/12/03 03:02:58;;;;;;;50.17;23.83;;;5.90;99.90;;;;;;4977135;28;20069;-88
2020/12/03 03:05:24;;;;;;;48.35;25.25;;;5.90;99.90;;;;;;4977277;28;20091;-89
2020/12/03 03:07:50;;;;;;;45.58;23.08;;;6.00;99.90;;;;;;4977339;28;20027;-87
2020/12/03 03:10:15;;;;;;;49.90;24.17;;;6.00;99.90;;;;;;4977180;28;20138;-88
2020/12/03 03:12:41;;;;;;;47.10;23.02;;;6.00;99.90;;;;;;4977190;28;20395;-88
2020/12/03 03:15:07;;;;;;;48.83;23.40;;;6.00;99.90;;;;;;4978011;28;20031;-87
2020/12/03 03:17:33;;;;;;;44.88;23.08;;;6.00;99.90;;;;;;4978074;28;20035;-88
2020/12/03 03:19:58;;;;;;;44.03;23.75;;;6.00;99.90;;;;;;4977053;28;20093;-88
2020/12/03 03:22:24;;;;;;;51.50;23.23;;;6.00;99.90;;;;;;4977132;28;20514;-88
2020/12/03 03:24:49;;;;;;;47.00;23.35;;;6.00;99.90;;;;;;4980198;28;20030;-88
2020/12/03 03:27:15;;;;;;;46.00;22.95;;;6.00;99.90;;;;;;4980016;28;20022;-88
2020/12/03 03:29:41;;;;;;;44.28;22.77;;;6.00;99.90;;;;;;4979981;28;20033;-89
2020/12/03 03:32:06;;;;;;;44.88;22.73;;;6.10;99.90;;;;;;4980219;28;20024;-88
2020/12/03 03:34:32;;;;;;;47.80;21.15;;;6.10;99.90;;;;;;4982170;28;20033;-89
2020/12/03 03:36:58;;;;;;;51.72;23.25;;;6.10;99.90;;;;;;4999641;28;20084;-89
2020/12/03 03:39:24;;;;;;;36.83;20.33;;;6.10;99.90;;;;;;4999330;28;20029;-87
2020/12/03 03:41:53;;;;;;;41.72;20.45;;;6.10;99.90;;;;;;4999261;28;20036;-88
2020/12/03 03:44:20;;;;;;;43.40;22.67;;;6.10;99.90;;;;;;4999192;28;20049;-88
2020/12/03 03:46:45;;;;;;;44.20;21.42;;;6.10;99.90;;;;;;5016617;28;20022;-88
2020/12/03 03:49:11;;;;;;;44.53;22.38;;;6.10;99.90;;;;;;4998904;28;20022;-88
2020/12/03 03:51:36;;;;;;;42.95;21.42;;;6.20;99.90;;;;;;4999002;28;20026;-88
2020/12/03 03:54:02;;;;;;;38.67;20.52;;;6.20;99.90;;;;;;4998947;28;20030;-88
2020/12/03 03:56:27;;;;;;;45.72;23.40;;;6.20;99.90;;;;;;4998961;28;20033;-88
2020/12/03 03:58:53;;;;;;;41.97;21.27;;;6.20;99.90;;;;;;4998903;28;20022;-88
2020/12/03 04:01:19;;;;;;;46.22;24.33;;;6.20;99.90;;;;;;5016119;28;20103;-88
2020/12/03 04:03:45;;;;;;;44.22;21.05;;;6.20;99.90;;;;;;4997870;28;20118;-88
2020/12/03 04:06:10;;;;;;;37.33;22.33;;;6.20;99.90;;;;;;4998908;28;20064;-89
2020/12/03 04:08:36;;;;;;;42.65;21.27;;;6.20;99.90;;;;;;4998995;28;20022;-89
2020/12/03 04:11:01;;;;;;;38.13;21.95;;;6.20;99.90;;;;;;4998753;28;20049;-89
2020/12/03 04:13:27;;;;;;;37.05;21.15;;;6.20;99.90;;;;;;4998784;28;20097;-88
2020/12/03 04:15:53;;;;;;;45.35;22.20;;;6.20;99.90;;;;;;4998712;28;20030;-87
2020/12/03 04:18:25;;;;;;;46.17;22.98;;;6.20;99.90;;;;;;4998707;28;20119;-88
2020/12/03 04:20:53;;;;;;;43.17;22.13;;;6.20;99.80;;;;;;4998685;28;20484;-88
2020/12/03 04:23:18;;;;;;;40.58;23.40;;;6.20;99.80;;;;;;5015944;28;20048;-88
2020/12/03 04:25:44;;;;;;;41.20;21.80;;;6.20;99.80;;;;;;4998391;28;20018;-88
2020/12/03 04:28:09;;;;;;;41.70;22.25;;;6.20;99.80;;;;;;5015887;28;20030;-89
2020/12/03 04:30:35;;;;;;;40.50;22.42;;;6.20;99.80;;;;;;4998278;28;20031;-89
2020/12/03 04:33:00;;;;;;;44.28;23.80;;;6.20;99.80;;;;;;4998124;28;20022;-88
2020/12/03 04:35:26;;;;;;;36.70;22.00;;;6.30;99.90;;;;;;4998282;28;20481;-88
2020/12/03 04:37:51;;;;;;;46.22;22.27;;;6.20;99.90;;;;;;5016056;28;20354;-88
2020/12/03 04:40:25;;;;;;;42.20;21.92;;;6.20;99.90;;;;;;4998233;28;20030;-88
2020/12/03 04:42:52;;;;;;;43.65;21.35;;;6.30;99.90;;;;;;4998081;28;20076;-88
2020/12/03 04:45:20;;;;;;;42.20;20.45;;;6.20;99.80;;;;;;4998086;28;20473;-88
2020/12/03 04:48:03;;;;;;;37.28;21.33;;;6.30;99.80;;;;;;4998152;28;20034;-88
2020/12/03 04:51:11;;;;;;;42.38;20.65;;;6.20;99.70;;;;;;4997818;28;20032;-88
2020/12/03 04:53:54;;;;;;;42.40;21.15;;;6.20;99.70;;;;;;4998089;28;20041;-88
2020/12/03 04:56:29;;;;;;;33.03;18.70;;;6.20;99.90;;;;;;5015254;28;20026;-88
2020/12/03 04:59:21;;;;;;;37.67;20.67;;;6.20;99.90;;;;;;4997800;28;20481;-88
2020/12/03 05:01:58;;;;;;;37.97;20.35;;;6.30;99.90;;;;;;4997352;28;20033;-89
2020/12/03 05:04:47;;;;;;;35.47;21.50;;;6.20;99.90;;;;;;4997605;28;20401;-88
2020/12/03 05:07:13;;;;;;;42.03;20.05;;;6.30;99.90;;;;;;4997587;28;20079;-89
2020/12/03 05:09:51;;;;;;;36.58;20.35;;;6.20;99.90;;;;;;4997758;28;20038;-88
2020/12/03 05:12:29;;;;;;;43.65;19.40;;;6.20;99.90;;;;;;4997705;28;20493;-89
2020/12/03 05:15:06;;;;;;;32.75;18.15;;;6.10;99.90;;;;;;5015007;28;20034;-88
2020/12/03 05:17:55;;;;;;;35.42;18.65;;;6.10;99.90;;;;;;5015176;28;20053;-88
2020/12/03 05:20:32;;;;;;;36.92;20.38;;;6.10;99.90;;;;;;4997645;28;20053;-88
2020/12/03 05:23:06;;;;;;;36.83;18.02;;;6.00;99.90;;;;;;4997392;28;20046;-89
2020/12/03 05:25:32;;;;;;;37.38;19.40;;;6.00;99.90;;;;;;4997482;28;20125;-88
2020/12/03 05:28:01;;;;;;;36.65;17.90;;;5.90;99.90;;;;;;5014938;28;20064;-89
2020/12/03 05:30:27;;;;;;;35.72;19.67;;;6.00;99.90;;;;;;4997225;28;20029;-88
2020/12/03 05:32:54;;;;;;;35.60;19.80;;;5.90;99.90;;;;;;4997434;28;20033;-88
2020/12/03 05:35:19;;;;;;;32.88;18.63;;;5.90;99.90;;;;;;4997212;28;20040;-88
2020/12/03 05:37:45;;;;;;;30.33;18.77;;;5.90;99.90;;;;;;4997460;28;20026;-88
2020/12/03 05:40:23;;;;;;;35.20;17.67;;;5.90;99.90;;;;;;5014713;28;20025;-89
2020/12/03 05:42:49;;;;;;;33.70;19.80;;;6.00;99.90;;;;;;4997672;28;20032;-89
2020/12/03 05:45:28;;;;;;;33.03;17.58;;;6.00;99.90;;;;;;4997434;28;20042;-88
2020/12/03 05:47:57;;;;;;;37.97;20.48;;;6.00;99.90;;;;;;4997210;28;20025;-89
2020/12/03 05:50:36;;;;;;;36.78;20.20;;;6.00;99.90;;;;;;5014503;28;20022;-88
2020/12/03 05:53:25;;;;;;;35.53;19.67;;;6.00;99.90;;;;;;4997225;28;20053;-89
2020/12/03 05:55:52;;;;;;;40.42;20.92;;;5.90;99.90;;;;;;4996731;28;20276;-89
2020/12/03 05:58:26;;;;;;;42.45;22.13;;;5.90;99.90;;;;;;5014740;28;20079;-89
2020/12/03 06:01:05;;;;;;;35.38;20.20;;;5.90;99.90;;;;;;4997020;28;20029;-89
2020/12/03 06:03:50;;;;;;;34.13;20.13;;;5.90;99.90;;;;;;5014378;28;20026;-89
2020/12/03 06:06:52;;;;;;;34.00;19.38;;;5.90;99.90;;;;;;4996959;28;20493;-88
2020/12/03 06:09:44;;;;;;;37.30;19.50;;;5.90;99.90;;;;;;4996911;28;20477;-89
2020/12/03 06:12:39;;;;;;;34.58;20.27;;;5.90;99.90;;;;;;4984265;28;20042;-89
2020/12/03 06:15:26;;;;;;;37.50;19.73;;;5.90;99.90;;;;;;4976604;28;20412;-89
2020/12/03 06:18:29;;;;;;;35.65;20.67;;;5.90;99.90;;;;;;4976465;28;20121;-89
2020/12/03 06:21:07;;;;;;;35.40;22.38;;;5.90;99.90;;;;;;4977201;28;20035;-89
2020/12/03 06:24:00;;;;;;;38.60;22.55;;;5.90;99.90;;;;;;4977197;28;20081;-90
2020/12/03 06:26:43;;;;;;;34.25;22.05;;;5.90;99.90;;;;;;4979262;28;20058;-90
2020/12/03 06:29:38;;;;;;;38.70;22.38;;;5.90;99.90;;;;;;4998807;28;20033;-89
2020/12/03 06:32:34;;;;;;;42.03;24.30;;;5.90;99.90;;;;;;4981147;28;20138;-89
2020/12/03 06:35:21;;;;;;;37.78;22.52;;;5.90;99.90;;;;;;4981002;28;20034;-89
2020/12/03 06:38:08;;;;;;;39.75;21.33;;;5.90;99.90;;;;;;4998404;28;20034;-89
2020/12/03 06:40:39;;;;;;;36.88;23.35;;;5.90;99.90;;;;;;4998141;28;20433;-89
2020/12/03 06:43:11;;;;;;;39.88;21.95;;;5.80;99.90;;;;;;4984152;28;20037;-94
2020/12/03 06:46:06;;;;;;;44.72;22.10;;;5.80;99.90;;;;;;4993905;28;20109;-92
2020/12/03 06:49:13;;;;;;;38.50;21.98;;;5.90;99.90;;;;;;5005850;28;20018;-91
2020/12/03 06:52:16;;;;;;;41.85;22.45;;;5.80;99.90;;;;;;4956830;28;20046;-90
2020/12/03 06:54:55;;;;;;;45.03;24.05;;;5.80;99.90;;;;;;4977867;28;20045;-88
2020/12/03 06:57:51;;;;;;;47.75;23.80;;;5.80;99.90;;;;;;4981101;28;20101;-89
2020/12/03 07:00:27;;;;;;;44.20;22.33;;;5.80;99.90;;;;;;4981002;28;20121;-90
2020/12/03 07:03:43;;;;;;;47.05;24.45;;;5.80;99.90;;;;;;4980540;28;20446;-89
2020/12/03 07:06:27;;;;;;;42.33;23.02;;;5.80;99.90;;;;;;4996436;28;20018;-88
2020/12/03 07:09:09;;;;;;;48.00;24.40;;;5.80;99.90;;;;;;4986466;28;20030;-88
2020/12/03 07:11:58;;;;;;;46.45;22.83;;;5.80;99.90;;;;;;5012999;28;20018;-88
2020/12/03 07:14:55;;;;;;;51.17;22.77;;;5.80;99.90;;;;;;5013602;28;20027;-89
2020/12/03 07:17:36;;;;;;;47.30;24.67;;;5.80;99.90;;;;;;5013047;28;20030;-87
2020/12/03 07:20:29;;;;;;;41.45;23.85;;;5.80;99.90;;;;;;4980453;28;20085;-90
2020/12/03 07:23:00;;;;;;;47.03;24.40;;;5.80;99.90;;;;;;4980245;28;20138;-88
2020/12/03 07:25:27;;;;;;;55.30;25.70;;;5.80;99.90;;;;;;4997500;28;20072;-88
2020/12/03 07:28:01;;;;;;;53.35;24.58;;;5.80;99.90;;;;;;5012808;28;20022;-89
2020/12/03 07:30:48;;;;;;;48.83;24.90;;;5.80;99.90;;;;;;5012854;28;20019;-89
2020/12/03 07:33:58;;;;;;;44.60;23.88;;;5.80;99.90;;;;;;4980965;28;20030;-91
2020/12/03 07:36:48;;;;;;;47.17;22.70;;;5.80;99.90;;;;;;4922587;29;20484;-94
2020/12/03 07:39:15;;;;;;;47.75;24.25;;;5.80;99.90;;;;;;4921918;29;20204;-91
2020/12/03 07:41:54;;;;;;;46.03;23.48;;;5.80;99.90;;;;;;4959612;28;20034;-92
2020/12/03 07:44:24;;;;;;;52.45;23.50;;;5.80;99.90;;;;;;4997481;28;20027;-89
2020/12/03 07:46:52;;;;;;;49.65;23.80;;;5.80;99.90;;;;;;5012638;28;20030;-89
2020/12/03 07:49:45;;;;;;;41.90;22.20;;;5.80;99.90;;;;;;4979944;28;20018;-89
2020/12/03 07:52:26;;;;;;;46.60;22.98;;;5.80;99.90;;;;;;4979880;28;20041;-90
2020/12/03 07:54:53;;;;;;;39.13;20.80;;;5.90;99.90;;;;;;4981101;28;20038;-90
2020/12/03 07:57:44;;;;;;;41.58;19.02;;;5.80;99.90;;;;;;4979908;28;20026;-93
2020/12/03 08:00:54;;;;;;;40.97;20.08;;;5.80;99.90;;;;;;5007913;28;20041;-91
2020/12/03 08:03:46;;;;;;;34.97;20.10;;;5.80;99.90;;;;;;5006629;28;20041;-91
2020/12/03 08:06:12;;;;;;;38.33;19.77;;;5.70;99.90;;;;;;5010445;28;20083;-90
2020/12/03 08:08:40;;;;;;;42.83;20.77;;;5.70;99.90;;;;;;4983204;28;20421;-90
2020/12/03 08:11:44;;;;;;;40.78;19.58;;;5.70;99.90;;;;;;5009201;28;20018;-90
2020/12/03 08:14:28;;;;;;;45.67;20.55;;;5.70;99.90;;;;;;5018477;28;20056;-92
2020/12/03 08:16:55;;;;;;;38.88;20.38;;;5.70;99.90;;;;;;5018865;28;20026;-91
2020/12/03 08:19:35;;;;;;;44.17;18.67;;;5.70;99.90;;;;;;5018802;28;20033;-94
2020/12/03 08:22:02;;;;;;;;;;;5.70;99.90;;;;;;4993334;28;20057;-90
2020/12/03 08:24:31;;;;;;;36.45;19.10;;;5.70;99.90;;;;;;4987484;28;20016;-90
2020/12/03 08:27:05;;;;;;;40.58;18.90;;;5.70;99.90;;;;;;4977541;28;20050;-90
2020/12/03 08:29:36;;;;;;;35.42;17.90;;;5.70;99.90;;;;;;4998080;28;20052;-91
2020/12/03 08:32:02;;;;;;;46.88;18.10;;;5.80;99.90;;;;;;5017447;28;20021;-91
2020/12/03 08:34:57;;;;;;;40.90;17.38;;;5.80;99.90;;;;;;4998975;28;20124;-91
2020/12/03 08:37:24;;;;;;;28.15;15.73;;;5.80;99.90;;;;;;4990377;28;20029;-91
2020/12/03 08:39:52;;;;;;;34.33;16.13;;;5.80;99.90;;;;;;4992790;28;20037;-90
2020/12/03 08:42:18;;;;;;;32.08;17.15;;;5.90;99.90;;;;;;4996575;28;20030;-91
2020/12/03 08:44:46;;;;;;;31.50;15.32;;;5.90;99.90;;;;;;4998468;28;20048;-92
2020/12/03 08:47:28;;;;;;;35.83;16.63;;;5.90;99.90;;;;;;4988692;28;20033;-91
2020/12/03 08:49:54;;;;;;;35.60;17.52;;;5.90;99.90;;;;;;4978644;28;20029;-90
2020/12/03 08:52:19;;;;;;;30.48;15.95;;;5.90;99.90;;;;;;4978704;28;20098;-90
2020/12/03 08:54:45;;;;;;;34.33;16.30;;;5.90;99.90;;;;;;4984416;28;20022;-92
2020/12/03 08:57:13;;;;;;;36.38;17.85;;;5.90;99.90;;;;;;5016631;28;20518;-90
2020/12/03 08:59:45;;;;;;;28.02;15.43;;;6.00;99.90;;;;;;4994815;28;20090;-91
2020/12/03 09:02:16;;;;;;;35.85;16.80;;;5.90;99.90;;;;;;4986684;28;20117;-91
2020/12/03 09:04:49;;;;;;;32.35;15.38;;;6.00;99.90;;;;;;5017852;28;20086;-91
2020/12/03 09:07:17;;;;;;;32.22;16.83;;;6.00;99.90;;;;;;5012693;28;20026;-91
2020/12/03 09:09:46;;;;;;;32.38;16.83;;;5.90;99.90;;;;;;4998722;28;20026;-90
2020/12/03 09:12:19;;;;;;;32.35;16.63;;;5.90;99.90;;;;;;4998120;28;20026;-90
2020/12/03 09:14:47;;;;;;;34.25;16.20;;;5.90;99.90;;;;;;5015348;28;20037;-90
2020/12/03 09:17:18;;;;;;;38.83;17.98;;;5.90;99.90;;;;;;5015822;28;20021;-90
2020/12/03 09:19:43;;;;;;;34.33;17.25;;;5.90;99.90;;;;;;4998081;28;20117;-89
2020/12/03 09:22:10;;;;;;;34.45;16.95;;;5.90;99.90;;;;;;4985482;28;20117;-94
2020/12/03 09:24:37;;;;;;;41.67;19.17;;;5.90;99.90;;;;;;4981348;28;20046;-91
2020/12/03 09:27:04;;;;;;;38.92;19.38;;;5.90;99.90;;;;;;5011485;28;20053;-92
2020/12/03 09:29:30;;;;;;;38.25;20.05;;;5.90;99.90;;;;;;4998138;28;20080;-92
2020/12/03 09:32:00;;;;;;;39.05;20.55;;;5.90;99.90;;;;;;4997773;28;20029;-87
2020/12/03 09:34:29;;;;;;;;;;;5.80;99.90;;;;;;4998390;28;20049;-91
2020/12/03 09:36:57;;;;;;;40.30;19.92;;;5.80;99.90;;;;;;4992185;28;19920;-92
2020/12/03 09:39:24;;;;;;;40.38;19.70;;;5.80;99.90;;;;;;4996561;28;20060;-91
2020/12/03 09:41:49;;;;;;;38.13;19.27;;;5.80;99.90;;;;;;5016880;28;20036;-92
2020/12/03 09:44:16;;;;;;;39.30;20.65;;;5.80;99.90;;;;;;5034458;28;20096;-91
2020/12/03 09:46:45;;;;;;;41.58;20.50;;;5.80;99.90;;;;;;5017233;28;20132;-91
2020/12/03 09:49:15;;;;;;;41.78;19.98;;;5.80;99.90;;;;;;5017258;28;20114;-91
2020/12/03 09:51:41;;;;;;;38.72;19.70;;;5.70;99.90;;;;;;5015772;28;20049;-91
2020/12/03 09:54:07;;;;;;;43.92;21.10;;;5.70;99.90;;;;;;5014156;28;20493;-91
2020/12/03 09:56:36;;;;;;;41.17;20.75;;;5.70;99.90;;;;;;5016669;28;20013;-90
2020/12/03 09:59:02;;;;;;;38.38;21.08;;;5.70;99.90;;;;;;5016808;28;20083;-91
2020/12/03 10:01:52;;;;;;;45.17;21.77;;;5.70;99.90;;;;;;5013974;28;20022;-91
2020/12/03 10:04:33;;;;;;;44.85;22.02;;;5.70;99.90;;;;;;5029898;28;20025;-91
2020/12/03 10:07:22;;;;;;;42.40;22.02;;;5.70;99.90;;;;;;4996617;28;20032;-91
2020/12/03 10:10:19;;;;;;;36.58;21.63;;;5.70;99.90;;;;;;4989561;28;20033;-93
2020/12/03 10:13:23;;;;;;;51.65;22.48;;;5.80;99.90;;;;;;4992067;28;20108;-91
2020/12/03 10:16:04;;;;;;;45.10;23.17;;;5.80;99.90;;;;;;4977509;28;20041;-91
2020/12/03 10:18:39;;;;;;;41.80;22.13;;;5.80;99.90;;;;;;4999507;28;20037;-89
2020/12/03 10:21:06;;;;;;;39.72;20.85;;;5.80;99.90;;;;;;5012838;28;20026;-91
2020/12/03 10:23:50;;;;;;;43.17;22.27;;;5.80;99.90;;;;;;4998183;28;20057;-90
2020/12/03 10:26:41;;;;;;;44.70;22.05;;;5.80;99.90;;;;;;4987456;28;20026;-88
2020/12/03 10:29:33;;;;;;;43.13;22.17;;;5.90;99.90;;;;;;4996936;28;20033;-91
2020/12/03 10:32:00;;;;;;;44.88;20.95;;;5.90;99.90;;;;;;4996952;28;20445;-92
2020/12/03 10:34:28;;;;;;;39.90;21.63;;;5.90;99.90;;;;;;4996858;28;20026;-91
2020/12/03 10:36:59;;;;;;;40.05;20.67;;;5.90;99.90;;;;;;5000902;28;20025;-91
2020/12/03 10:39:43;;;;;;;36.30;20.30;;;5.90;99.90;;;;;;5016437;28;20064;-90
2020/12/03 10:42:14;;;;;;;39.78;21.95;;;6.00;99.90;;;;;;5016472;28;20091;-91
2020/12/03 10:44:44;;;;;;;45.20;20.85;;;6.00;99.90;;;;;;5016365;28;20087;-91
2020/12/03 10:47:13;;;;;;;44.95;22.77;;;6.00;99.90;;;;;;5034018;28;20018;-91
2020/12/03 10:49:41;;;;;;;37.13;21.00;;;6.00;99.90;;;;;;5015690;28;20064;-90
2020/12/03 10:52:07;;;;;;;38.25;20.65;;;6.10;99.90;;;;;;5018301;28;20026;-91
2020/12/03 10:54:33;;;;;;;34.55;19.45;;;6.10;99.90;;;;;;4977557;28;20500;-91
2020/12/03 10:57:05;;;;;;;39.85;20.08;;;6.10;99.90;;;;;;4994624;28;20022;-91
2020/12/03 10:59:38;;;;;;;34.25;20.20;;;6.20;99.90;;;;;;4994608;28;20037;-91
2020/12/03 11:02:11;;;;;;;42.17;22.15;;;6.10;99.90;;;;;;4977905;28;20390;-90
2020/12/03 11:04:38;;;;;;;43.45;20.65;;;6.20;99.90;;;;;;5014774;28;20477;-90
2020/12/03 11:07:08;;;;;;;42.03;20.65;;;6.20;99.90;;;;;;5016319;28;20028;-92
2020/12/03 11:09:34;;;;;;;33.65;18.98;;;6.20;99.90;;;;;;5017015;28;20113;-93
2020/12/03 11:12:00;;;;;;;36.45;19.65;;;6.20;99.90;;;;;;5017908;28;20034;-91
2020/12/03 11:14:31;;;;;;;39.63;19.05;;;6.20;99.90;;;;;;5020450;28;20477;-91
2020/12/03 11:17:01;;;;;;;37.30;18.48;;;6.20;99.90;;;;;;5011264;28;20045;-92
2020/12/03 11:19:29;;;;;;;31.20;17.17;;;6.20;99.90;;;;;;5004068;28;20033;-91
2020/12/03 11:22:02;;;;;;;31.48;16.92;;;6.20;99.90;;;;;;4980974;28;20030;-92
2020/12/03 11:24:42;;;;;;;35.22;17.88;;;6.20;99.80;;;;;;4982101;28;20065;-91
2020/12/03 11:27:09;;;;;;;34.42;17.42;;;6.20;99.70;;;;;;4980410;28;20019;-92
2020/12/03 11:29:38;;;;;;;33.35;17.48;;;6.20;99.60;;;;;;4978100;28;20471;-91
2020/12/03 11:32:04;;;;;;;28.33;17.55;;;6.20;99.50;;;;;;4985464;28;20030;-93
2020/12/03 11:34:39;;;;;;;27.67;16.42;;;6.20;99.60;;;;;;4985073;28;20034;-93
2020/12/03 11:37:05;;;;;;;32.28;16.92;;;6.30;99.50;;;;;;5000721;28;20030;-92
2020/12/03 11:39:32;;;;;;;32.28;16.50;;;6.30;99.50;;;;;;4982159;28;20022;-96
2020/12/03 11:45:48;;;;;;;29.75;16.10;;;6.30;99.40;;;;;;4964479;28;20039;-95
2020/12/03 11:50:38;;;;;;;28.60;15.73;;;6.30;99.20;;;;;;5040097;28;20010;-95
2020/12/03 11:53:05;;;;;;;25.67;14.77;;;6.30;99.30;;;;;;5020239;28;20084;-95
2020/12/03 11:55:37;;;;;;;25.23;15.13;;;6.30;99.10;;;;;;4996365;28;20027;-95
2020/12/03 11:58:07;;;;;;;22.00;13.90;;;6.30;99.10;;;;;;5006218;28;20041;-91
2020/12/03 12:00:33;;;;;;;25.05;15.18;;;6.30;98.60;;;;;;4980175;28;20057;-91
2020/12/03 12:03:09;;;;;;;30.48;14.55;;;6.30;98.60;;;;;;4984903;28;20031;-91
2020/12/03 12:08:56;;;;;;;24.67;13.57;;;6.30;98.60;;;;;;4979838;28;20019;-91
2020/12/03 12:11:00;;;;;;;22.42;13.25;;;6.40;98.60;;;;;;4972042;28;20030;-91
2020/12/03 12:13:26;;;;;;;25.10;12.15;;;6.30;98.40;;;;;;4982687;28;20018;-91
2020/12/03 12:15:52;;;;;;;19.98;11.15;;;6.40;98.30;;;;;;4992372;28;20019;-92
2020/12/03 12:18:17;;;;;;;21.58;11.20;;;6.40;98.40;;;;;;4975589;28;20564;-91
2020/12/03 12:20:43;;;;;;;17.73;10.75;;;6.40;98.10;;;;;;4976384;28;20869;-90
2020/12/03 12:23:09;;;;;;;17.52;10.85;;;6.40;98.10;;;;;;4968892;28;20054;-91
2020/12/03 12:25:34;;;;;;;19.27;10.35;;;6.40;98.00;;;;;;4979449;28;20018;-91
2020/12/03 12:28:00;;;;;;;20.27;10.07;;;6.40;98.00;;;;;;4985279;28;20470;-91
2020/12/03 12:30:26;;;;;;;16.83;9.20;;;6.40;98.00;;;;;;4978447;28;20030;-90
2020/12/03 12:32:52;;;;;;;14.93;9.98;;;6.40;98.10;;;;;;4983770;28;20470;-91
2020/12/03 12:35:17;;;;;;;17.15;10.63;;;6.40;98.20;;;;;;4983831;28;20739;-92
2020/12/03 12:37:43;;;;;;;15.07;8.57;;;6.40;98.20;;;;;;4989431;28;20056;-92
2020/12/03 12:40:08;;;;;;;13.07;8.88;;;6.30;98.20;;;;;;4978098;28;20015;-92
2020/12/03 12:42:35;;;;;;;15.45;8.38;;;6.30;98.30;;;;;;4976894;28;20085;-91
2020/12/03 12:45:00;;;;;;;13.23;8.18;;;6.20;98.30;;;;;;4994401;28;20018;-88
2020/12/03 12:47:26;;;;;;;13.63;8.80;;;6.20;98.50;;;;;;4982217;28;20030;-89
2020/12/03 12:49:52;;;;;;;11.77;8.38;;;6.20;98.80;;;;;;4977282;28;20027;-93
2020/12/03 12:52:18;;;;;;;13.18;7.82;;;6.20;98.90;;;;;;4983363;28;20560;-94
2020/12/03 12:54:44;;;;;;;14.18;8.25;;;6.20;99.00;;;;;;4986136;28;20030;-92
2020/12/03 12:57:09;;;;;;;17.05;8.70;;;6.20;98.90;;;;;;4976677;28;20077;-93
2020/12/03 12:59:35;;;;;;;12.00;7.78;;;6.20;98.80;;;;;;4975811;28;20053;-93
2020/12/03 13:02:01;;;;;;;15.00;7.47;;;6.20;98.70;;;;;;4976427;28;20490;-94
2020/12/03 13:04:26;;;;;;;12.93;7.57;;;6.20;98.50;;;;;;4979332;28;20125;-95
2020/12/03 13:06:56;;;;;;;11.32;6.93;;;6.20;98.70;;;;;;4976576;28;20367;-94
2020/12/03 13:09:22;;;;;;;;;;;6.20;98.50;;;;;;4983393;28;20038;-94
2020/12/03 13:11:48;;;;;;;12.88;6.85;;;6.20;98.40;;;;;;4981938;28;19906;-95
2020/12/03 13:14:14;;;;;;;13.32;6.68;;;6.30;98.90;;;;;;4979833;28;20493;-94
2020/12/03 13:16:40;;;;;;;10.73;6.65;;;6.30;98.40;;;;;;4980197;28;20033;-94
2020/12/03 13:19:07;;;;;;;9.25;6.15;;;6.30;98.20;;;;;;4980624;28;20027;-96
2020/12/03 13:21:34;;;;;;;9.70;6.53;;;6.30;98.20;;;;;;4983272;28;20053;-94
2020/12/03 13:24:00;;;;;;;9.80;6.40;;;6.30;98.20;;;;;;4984782;28;20039;-95
2020/12/03 13:26:26;;;;;;;12.40;6.00;;;6.30;98.20;;;;;;4992650;28;20051;-95
2020/12/03 13:28:52;;;;;;;12.82;6.10;;;6.20;98.10;;;;;;4988635;28;20042;-95
2020/12/03 13:31:17;;;;;;;11.68;6.53;;;6.20;98.00;;;;;;4993722;28;20010;-95
2020/12/03 13:33:43;;;;;;;10.35;6.28;;;6.20;98.40;;;;;;4994512;28;20026;-93